createdAt,value
2018-03-15T00:02:14.471Z,31.40
2018-03-15T00:04:42.219Z,30.73
2018-03-15T00:07:10.641Z,30.93
2018-03-15T00:09:38.316Z,33.57
2018-03-15T00:12:05.960Z,31.37
2018-03-15T00:14:34.520Z,31.27
2018-03-15T00:17:02.906Z,32.70
2018-03-15T00:19:30.623Z,32.73
2018-03-15T00:21:58.273Z,35.23
2018-03-15T00:24:25.958Z,35.13
2018-03-15T00:26:53.644Z,34.97
2018-03-15T00:29:22.068Z,33.97
2018-03-15T00:31:49.706Z,34.47
2018-03-15T00:34:17.361Z,35.73
2018-03-15T00:36:45.085Z,35.33
2018-03-15T00:39:12.825Z,36.17
2018-03-15T00:41:40.486Z,35.00
2018-03-15T00:44:08.564Z,33.00
2018-03-15T00:46:36.439Z,34.90
2018-03-15T00:49:04.064Z,32.87
2018-03-15T00:51:31.781Z,32.77
2018-03-15T00:53:59.473Z,33.43
2018-03-15T00:56:27.186Z,33.33
2018-03-15T00:58:54.966Z,32.53
2018-03-15T01:01:23.072Z,35.17
2018-03-15T01:03:50.676Z,34.97
2018-03-15T01:06:18.294Z,34.53
2018-03-15T01:08:46.014Z,33.37
2018-03-15T01:11:13.692Z,36.07
2018-03-15T01:13:42.358Z,33.93
2018-03-15T01:16:10.017Z,31.97
2018-03-15T01:18:37.683Z,33.67
2018-03-15T01:21:05.430Z,32.97
2018-03-15T01:23:33.213Z,34.17
2018-03-15T01:26:01.918Z,33.00
2018-03-15T01:28:30.353Z,33.33
2018-03-15T01:30:58.124Z,34.33
2018-03-15T01:33:25.893Z,29.87
2018-03-15T01:35:53.636Z,33.50
2018-03-15T01:38:21.336Z,33.93
2018-03-15T01:40:48.985Z,35.20
2018-03-15T01:43:16.704Z,34.80
2018-03-15T01:45:44.322Z,33.20
2018-03-15T01:48:12.904Z,32.13
2018-03-15T01:50:40.521Z,32.30
2018-03-15T01:53:08.302Z,34.50
2018-03-15T01:55:36.036Z,35.57
2018-03-15T01:58:03.930Z,35.77
2018-03-15T02:00:31.717Z,35.80
2018-03-15T02:02:59.353Z,32.73
2018-03-15T02:05:27.129Z,37.80
2018-03-15T02:07:54.954Z,36.97
2018-03-15T02:10:22.597Z,36.37
2018-03-15T02:12:50.216Z,43.10
2018-03-15T02:15:17.878Z,39.33
2018-03-15T02:17:46.426Z,35.83
2018-03-15T02:20:14.054Z,40.40
2018-03-15T02:22:42.597Z,45.00
2018-03-15T02:25:10.266Z,43.60
2018-03-15T02:27:37.956Z,51.80
2018-03-15T02:30:06.374Z,39.00
2018-03-15T02:32:34.156Z,46.93
2018-03-15T02:35:01.796Z,50.40
2018-03-15T02:37:29.650Z,53.10
2018-03-15T02:39:57.382Z,48.77
2018-03-15T02:42:25.773Z,42.27
2018-03-15T02:44:54.170Z,41.20
2018-03-15T02:47:21.958Z,44.77
2018-03-15T02:49:49.574Z,51.47
2018-03-15T02:52:18.471Z,51.30
2018-03-15T02:54:46.106Z,46.87
2018-03-15T02:57:14.202Z,50.93
2018-03-15T02:59:42.600Z,39.87
2018-03-15T03:02:10.428Z,48.80
2018-03-15T03:04:39.004Z,38.73
2018-03-15T03:07:07.407Z,45.83
2018-03-15T03:09:35.091Z,44.03
2018-03-15T03:12:02.756Z,48.07
2018-03-15T03:14:30.392Z,39.10
2018-03-15T03:16:58.909Z,52.63
2018-03-15T03:19:26.567Z,47.47
2018-03-15T03:21:54.207Z,52.33
2018-03-15T03:24:21.870Z,46.17
2018-03-15T03:26:50.966Z,40.93
2018-03-15T03:29:18.691Z,48.10
2018-03-15T03:31:46.448Z,46.77
2018-03-15T03:34:14.085Z,47.67
2018-03-15T03:36:42.547Z,40.67
2018-03-15T03:39:10.362Z,53.10
2018-03-15T03:41:38.984Z,41.63
2018-03-15T03:44:06.681Z,40.13
2018-03-15T03:46:34.320Z,40.37
2018-03-15T03:49:02.024Z,39.20
2018-03-15T03:51:29.672Z,38.87
2018-03-15T03:53:57.330Z,38.33
2018-03-15T03:56:25.053Z,39.27
2018-03-15T03:58:53.082Z,37.57
2018-03-15T04:01:20.733Z,37.67
2018-03-15T04:03:48.379Z,36.70
2018-03-15T04:06:16.154Z,37.43
2018-03-15T04:08:43.863Z,36.07
2018-03-15T04:11:11.657Z,35.67
2018-03-15T04:13:39.386Z,33.87
2018-03-15T04:16:07.110Z,34.87
2018-03-15T04:18:34.806Z,34.67
2018-03-15T04:21:03.206Z,35.43
2018-03-15T04:23:30.888Z,35.47
2018-03-15T04:25:59.023Z,33.97
2018-03-15T04:28:26.654Z,33.43
2018-03-15T04:30:54.322Z,34.20
2018-03-15T04:33:21.946Z,34.27
2018-03-15T04:35:49.642Z,34.40
2018-03-15T04:38:17.281Z,35.77
2018-03-15T04:40:44.895Z,35.43
2018-03-15T04:43:12.568Z,35.97
2018-03-15T04:45:40.276Z,37.03
2018-03-15T04:48:07.934Z,36.50
2018-03-15T04:50:35.645Z,37.07
2018-03-15T04:53:03.300Z,35.53
2018-03-15T04:55:31.063Z,36.87
2018-03-15T04:57:59.824Z,37.07
2018-03-15T05:00:27.587Z,37.97
2018-03-15T05:02:55.193Z,37.10
2018-03-15T05:05:23.238Z,37.27
2018-03-15T05:07:51.639Z,35.77
2018-03-15T05:10:19.408Z,35.47
2018-03-15T05:12:47.071Z,36.40
2018-03-15T05:15:14.687Z,33.67
2018-03-15T05:17:42.382Z,35.40
2018-03-15T05:20:10.438Z,33.43
2018-03-15T05:22:38.269Z,35.83
2018-03-15T05:25:06.752Z,37.00
2018-03-15T05:27:34.445Z,36.90
2018-03-15T05:30:03.401Z,38.40
2018-03-15T05:32:31.039Z,38.37
2018-03-15T05:34:58.819Z,40.30
2018-03-15T05:37:26.554Z,37.97
2018-03-15T05:39:54.262Z,38.43
2018-03-15T05:42:21.969Z,38.83
2018-03-15T05:44:49.678Z,40.57
2018-03-15T05:47:17.361Z,38.07
2018-03-15T05:49:46.228Z,39.63
2018-03-15T05:52:14.041Z,39.40
2018-03-15T05:54:41.691Z,38.40
2018-03-15T05:57:10.195Z,39.30
2018-03-15T05:59:37.870Z,36.07
2018-03-15T06:02:05.529Z,33.73
2018-03-15T06:04:33.328Z,32.30
2018-03-15T06:07:01.027Z,31.67
2018-03-15T06:09:28.682Z,30.33
2018-03-15T06:11:57.270Z,28.87
2018-03-15T06:14:25.878Z,30.80
2018-03-15T06:16:54.561Z,30.07
2018-03-15T06:19:22.361Z,28.70
2018-03-15T06:21:50.099Z,28.13
2018-03-15T06:24:17.804Z,27.80
2018-03-15T06:26:45.457Z,26.47
2018-03-15T06:29:13.281Z,27.07
2018-03-15T06:31:40.941Z,27.53
2018-03-15T06:34:08.712Z,26.03
2018-03-15T06:36:36.486Z,26.70
2018-03-15T06:39:04.150Z,26.00
2018-03-15T06:41:31.839Z,25.57
2018-03-15T06:43:59.489Z,25.37
2018-03-15T06:46:27.180Z,23.97
2018-03-15T06:48:55.730Z,24.40
2018-03-15T06:51:23.888Z,23.70
2018-03-15T06:53:51.532Z,24.53
2018-03-15T06:56:19.402Z,25.30
2018-03-15T06:58:47.065Z,22.73
2018-03-15T07:01:14.762Z,22.83
2018-03-15T07:03:42.420Z,20.17
2018-03-15T07:06:11.125Z,22.33
2018-03-15T07:08:38.905Z,22.67
2018-03-15T07:11:06.793Z,21.87
2018-03-15T07:13:34.485Z,22.37
2018-03-15T07:16:02.232Z,21.50
2018-03-15T07:18:29.955Z,22.23
2018-03-15T07:20:57.672Z,20.33
2018-03-15T07:23:25.402Z,21.47
2018-03-15T07:25:53.100Z,21.63
2018-03-15T07:28:20.843Z,19.47
2018-03-15T07:30:48.463Z,21.13
2018-03-15T07:33:16.928Z,18.43
2018-03-15T07:35:44.589Z,17.87
2018-03-15T07:38:12.361Z,19.00
2018-03-15T07:40:40.058Z,19.67
2018-03-15T07:43:07.678Z,19.87
2018-03-15T07:45:35.312Z,19.23
2018-03-15T07:48:03.012Z,18.77
2018-03-15T07:50:30.741Z,18.43
2018-03-15T07:52:58.497Z,18.70
2018-03-15T07:55:26.158Z,19.00
2018-03-15T07:57:53.959Z,17.83
2018-03-15T08:00:21.592Z,17.27
2018-03-15T08:02:49.332Z,17.13
2018-03-15T08:05:20.217Z,17.00
2018-03-15T08:07:47.962Z,17.50
2018-03-15T08:10:15.648Z,17.23
2018-03-15T08:12:43.808Z,16.73
2018-03-15T08:15:11.911Z,18.67
2018-03-15T08:17:40.345Z,17.13
2018-03-15T08:20:08.959Z,15.97
2018-03-15T08:22:36.612Z,17.73
2018-03-15T08:25:04.319Z,16.60
2018-03-15T08:27:31.981Z,16.10
2018-03-15T08:29:59.732Z,16.40
2018-03-15T08:32:28.111Z,16.23
2018-03-15T08:34:55.900Z,16.10
2018-03-15T08:37:23.635Z,16.33
2018-03-15T08:39:51.286Z,15.27
2018-03-15T08:42:19.743Z,18.33
2018-03-15T08:44:47.493Z,16.50
2018-03-15T08:47:15.174Z,16.07
2018-03-15T08:49:42.822Z,15.40
2018-03-15T08:52:10.446Z,16.33
2018-03-15T08:54:38.027Z,16.20
2018-03-15T08:57:05.707Z,16.17
2018-03-15T08:59:33.359Z,15.87
2018-03-15T09:02:01.039Z,15.67
2018-03-15T09:04:29.717Z,15.67
2018-03-15T09:06:58.027Z,15.63
2018-03-15T09:09:25.862Z,15.30
2018-03-15T09:11:54.293Z,14.73
2018-03-15T09:14:22.073Z,15.43
2018-03-15T09:16:49.733Z,14.80
2018-03-15T09:19:17.407Z,15.13
2018-03-15T09:21:45.066Z,16.37
2018-03-15T09:24:12.875Z,15.00
2018-03-15T09:26:40.599Z,15.50
2018-03-15T09:29:08.326Z,14.80
2018-03-15T09:31:36.287Z,15.13
2018-03-15T09:34:03.969Z,14.57
2018-03-15T09:36:31.944Z,15.37
2018-03-15T09:38:59.629Z,15.17
2018-03-15T09:41:27.413Z,14.53
2018-03-15T09:43:55.157Z,14.83
2018-03-15T09:46:23.042Z,14.80
2018-03-15T09:48:50.794Z,16.37
2018-03-15T09:51:19.230Z,15.43
2018-03-15T09:53:47.045Z,16.37
2018-03-15T09:56:15.591Z,15.53
2018-03-15T09:58:43.318Z,15.50
2018-03-15T10:01:10.992Z,15.03
2018-03-15T10:03:39.118Z,14.73
2018-03-15T10:06:07.759Z,15.97
2018-03-15T10:08:35.387Z,16.00
2018-03-15T10:11:03.638Z,15.83
2018-03-15T10:13:32.058Z,15.77
2018-03-15T10:15:59.836Z,16.47
2018-03-15T10:18:27.578Z,15.13
2018-03-15T10:20:55.280Z,15.23
2018-03-15T10:23:22.913Z,14.80
2018-03-15T10:25:50.636Z,16.13
2018-03-15T10:28:19.070Z,13.97
2018-03-15T10:30:46.824Z,14.30
2018-03-15T10:33:20.531Z,15.33
2018-03-15T10:35:48.211Z,15.70
2018-03-15T10:38:15.906Z,15.47
2018-03-15T10:40:43.601Z,15.57
2018-03-15T10:43:11.317Z,15.33
2018-03-15T10:45:39.070Z,14.37
2018-03-15T10:48:06.933Z,14.43
2018-03-15T10:50:34.623Z,15.20
2018-03-15T10:53:03.053Z,14.13
2018-03-15T10:55:30.938Z,14.83
2018-03-15T10:57:58.615Z,14.47
2018-03-15T11:00:32.104Z,14.47
2018-03-15T11:02:59.763Z,15.27
2018-03-15T11:05:33.033Z,14.73
2018-03-15T11:08:06.399Z,15.43
2018-03-15T11:10:34.034Z,15.33
2018-03-15T11:13:02.672Z,14.30
2018-03-15T11:15:30.389Z,14.17
2018-03-15T11:17:58.223Z,13.50
2018-03-15T11:20:25.906Z,13.70
2018-03-15T11:22:54.610Z,13.73
2018-03-15T11:25:22.316Z,12.90
2018-03-15T11:27:50.211Z,13.93
2018-03-15T11:30:17.881Z,12.53
2018-03-15T11:32:46.399Z,11.80
2018-03-15T11:35:14.081Z,11.17
2018-03-15T11:37:41.820Z,11.57
2018-03-15T11:40:09.696Z,10.73
2018-03-15T11:42:37.440Z,11.27
2018-03-15T11:45:05.192Z,11.37
2018-03-15T11:47:33.704Z,12.37
2018-03-15T11:50:01.469Z,11.03
2018-03-15T11:52:29.302Z,11.70
2018-03-15T11:54:57.006Z,12.17
2018-03-15T11:57:24.818Z,12.40
2018-03-15T11:59:52.620Z,11.43
2018-03-15T12:02:20.328Z,11.87
2018-03-15T12:04:48.095Z,11.63
2018-03-15T12:07:16.232Z,12.70
2018-03-15T12:09:44.057Z,12.43
2018-03-15T12:12:11.737Z,11.93
2018-03-15T12:14:39.505Z,11.60
2018-03-15T12:17:07.853Z,11.90
2018-03-15T12:19:35.613Z,12.03
2018-03-15T12:22:03.376Z,12.47
2018-03-15T12:24:31.841Z,11.77
2018-03-15T12:26:59.930Z,11.93
2018-03-15T12:29:27.751Z,12.27
2018-03-15T12:31:55.408Z,11.70
2018-03-15T12:34:23.218Z,11.40
2018-03-15T12:36:51.664Z,11.43
2018-03-15T12:39:19.320Z,10.67
2018-03-15T12:41:47.019Z,10.67
2018-03-15T12:44:15.624Z,11.50
2018-03-15T12:46:44.327Z,11.07
2018-03-15T12:49:12.979Z,10.20
2018-03-15T12:51:41.488Z,11.30
2018-03-15T12:54:09.489Z,10.77
2018-03-15T12:56:37.190Z,10.33
2018-03-15T12:59:05.083Z,10.47
2018-03-15T13:01:32.774Z,10.60
2018-03-15T13:04:00.561Z,10.60
2018-03-15T13:06:28.230Z,10.67
2018-03-15T13:08:55.882Z,10.57
2018-03-15T13:11:23.647Z,10.33
2018-03-15T13:13:51.296Z,10.47
2018-03-15T13:16:19.071Z,10.77
2018-03-15T13:18:46.744Z,12.60
2018-03-15T13:21:14.427Z,12.60
2018-03-15T13:23:42.118Z,11.07
2018-03-15T13:26:09.805Z,10.90
2018-03-15T13:28:37.771Z,9.83
2018-03-15T13:31:05.506Z,10.97
2018-03-15T13:33:33.322Z,10.70
2018-03-15T13:36:01.023Z,10.50
2018-03-15T13:38:29.426Z,11.57
2018-03-15T13:40:57.089Z,10.67
2018-03-15T13:43:24.776Z,11.27
2018-03-15T13:45:52.498Z,11.23
2018-03-15T13:48:20.277Z,10.83
2018-03-15T13:50:47.974Z,11.00
2018-03-15T13:53:15.748Z,10.43
2018-03-15T13:55:45.078Z,10.23
2018-03-15T13:58:12.743Z,10.87
2018-03-15T14:00:41.273Z,9.63
2018-03-15T14:03:08.969Z,10.97
2018-03-15T14:05:38.045Z,10.33
2018-03-15T14:08:05.746Z,9.70
2018-03-15T14:10:33.675Z,10.17
2018-03-15T14:13:01.417Z,9.60
2018-03-15T14:15:29.137Z,9.63
2018-03-15T14:17:56.822Z,9.70
2018-03-15T14:20:25.880Z,10.20
2018-03-15T14:22:53.656Z,10.27
2018-03-15T14:25:21.378Z,11.10
2018-03-15T14:27:49.056Z,10.33
2018-03-15T14:30:17.723Z,9.10
2018-03-15T14:32:45.469Z,8.93
2018-03-15T14:35:13.198Z,9.53
2018-03-15T14:37:41.362Z,8.93
2018-03-15T14:40:11.473Z,8.80
2018-03-15T14:42:39.880Z,8.23
2018-03-15T14:45:07.520Z,8.63
2018-03-15T14:47:36.823Z,8.40
2018-03-15T14:50:05.241Z,8.73
2018-03-15T14:52:32.894Z,9.17
2018-03-15T14:55:01.709Z,8.73
2018-03-15T14:57:29.368Z,9.43
2018-03-15T14:59:57.035Z,8.43
2018-03-15T15:02:24.771Z,8.73
2018-03-15T15:04:52.379Z,8.67
2018-03-15T15:07:20.296Z,8.97
2018-03-15T15:09:47.994Z,9.20
2018-03-15T15:12:15.714Z,8.77
2018-03-15T15:14:44.269Z,9.50
2018-03-15T15:17:12.915Z,9.20
2018-03-15T15:19:40.603Z,9.60
2018-03-15T15:22:09.636Z,9.70
2018-03-15T15:24:41.563Z,9.20
2018-03-15T15:27:09.265Z,9.37
2018-03-15T15:29:37.284Z,10.63
2018-03-15T15:32:04.904Z,9.97
2018-03-15T15:34:32.668Z,11.07
2018-03-15T15:37:00.386Z,10.30
2018-03-15T15:39:28.048Z,10.67
2018-03-15T15:41:56.628Z,9.77
2018-03-15T15:44:24.282Z,9.97
2018-03-15T15:46:51.974Z,10.57
2018-03-15T15:49:19.653Z,10.73
2018-03-15T15:51:47.521Z,11.30
2018-03-15T15:54:16.413Z,10.63
2018-03-15T15:56:44.225Z,10.90
2018-03-15T15:59:11.868Z,10.07
2018-03-15T16:01:39.578Z,11.37
2018-03-15T16:04:07.729Z,10.40
2018-03-15T16:06:35.524Z,11.07
2018-03-15T16:09:03.268Z,10.83
2018-03-15T16:11:30.988Z,10.97
2018-03-15T16:13:59.360Z,10.80
2018-03-15T16:16:27.769Z,10.50
2018-03-15T16:18:56.247Z,11.20
2018-03-15T16:21:24.010Z,10.97
2018-03-15T16:23:52.214Z,11.43
2018-03-15T16:26:20.156Z,11.03
2018-03-15T16:28:47.873Z,12.43
2018-03-15T16:31:15.545Z,12.00
2018-03-15T16:33:43.358Z,11.90
2018-03-15T16:36:11.166Z,12.70
2018-03-15T16:38:38.928Z,12.53
2018-03-15T16:41:06.683Z,12.77
2018-03-15T16:43:34.415Z,11.97
2018-03-15T16:46:02.166Z,12.20
2018-03-15T16:48:29.850Z,12.67
2018-03-15T16:50:58.326Z,11.90
2018-03-15T16:53:26.048Z,12.43
2018-03-15T16:55:53.755Z,13.17
2018-03-15T17:00:56.477Z,13.83
2018-03-15T17:03:24.245Z,13.83
2018-03-15T17:05:52.061Z,14.00
2018-03-15T17:08:19.755Z,13.97
2018-03-15T17:10:47.706Z,13.93
2018-03-15T17:13:15.373Z,13.13
2018-03-15T17:15:43.868Z,15.20
2018-03-15T17:18:11.544Z,13.93
2018-03-15T17:20:39.353Z,14.47
2018-03-15T17:23:07.054Z,14.53
2018-03-15T17:25:36.140Z,14.73
2018-03-15T17:28:04.703Z,14.20
2018-03-15T17:30:32.387Z,15.10
2018-03-15T17:33:00.373Z,15.00
2018-03-15T17:35:28.201Z,15.33
2018-03-15T17:37:56.213Z,15.20
2018-03-15T17:40:23.997Z,16.07
2018-03-15T17:42:51.672Z,15.73
2018-03-15T17:45:20.330Z,14.90
2018-03-15T17:47:48.202Z,15.57
2018-03-15T17:50:16.088Z,16.10
2018-03-15T17:52:43.817Z,16.90
2018-03-15T17:55:11.606Z,16.20
2018-03-15T17:57:39.369Z,16.03
2018-03-15T18:00:10.737Z,16.43
2018-03-15T18:02:38.480Z,17.07
2018-03-15T18:05:06.989Z,17.47
2018-03-15T18:07:35.182Z,16.70
2018-03-15T18:10:03.767Z,16.60
2018-03-15T18:12:32.280Z,18.30
2018-03-15T18:15:00.195Z,17.17
2018-03-15T18:17:27.936Z,17.90
2018-03-15T18:19:55.994Z,18.47
2018-03-15T18:22:23.757Z,18.10
2018-03-15T18:24:51.454Z,17.63
2018-03-15T18:27:19.202Z,18.70
2018-03-15T18:29:47.022Z,18.37
2018-03-15T18:32:14.750Z,17.83
2018-03-15T18:34:42.549Z,18.37
2018-03-15T18:37:10.273Z,19.27
2018-03-15T18:39:38.172Z,18.63
2018-03-15T18:42:07.560Z,19.23
2018-03-15T18:44:35.236Z,20.63
2018-03-15T18:47:04.554Z,18.73
2018-03-15T18:49:33.937Z,19.10
2018-03-15T18:52:02.560Z,20.67
2018-03-15T18:54:31.143Z,19.63
2018-03-15T18:56:59.013Z,18.73
2018-03-15T18:59:27.231Z,19.47
2018-03-15T19:01:56.072Z,19.47
2018-03-15T19:04:24.724Z,19.27
2018-03-15T19:06:52.776Z,19.67
2018-03-15T19:09:20.600Z,19.80
2018-03-15T19:11:48.543Z,19.23
2018-03-15T19:14:16.295Z,21.10
2018-03-15T19:16:43.998Z,19.83
2018-03-15T19:19:11.790Z,19.07
2018-03-15T19:21:39.472Z,20.23
2018-03-15T19:24:08.207Z,19.87
2018-03-15T19:26:35.974Z,20.87
2018-03-15T19:29:04.021Z,20.97
2018-03-15T19:31:31.748Z,20.20
2018-03-15T19:34:00.296Z,21.03
2018-03-15T19:36:28.206Z,22.10
2018-03-15T19:38:56.725Z,21.07
2018-03-15T19:41:24.614Z,21.60
2018-03-15T19:43:52.554Z,21.93
2018-03-15T19:46:21.161Z,20.13
2018-03-15T19:48:48.801Z,20.93
2018-03-15T19:51:16.755Z,21.90
2018-03-15T19:53:44.522Z,21.80
2018-03-15T19:56:12.225Z,22.43
2018-03-15T19:58:40.218Z,22.53
2018-03-15T20:01:08.087Z,20.67
2018-03-15T20:03:36.065Z,20.43
2018-03-15T20:06:03.976Z,20.30
2018-03-15T20:08:31.856Z,20.87
2018-03-15T20:10:59.636Z,20.97
2018-03-15T20:13:27.296Z,21.63
2018-03-15T20:15:56.679Z,21.67
2018-03-15T20:18:24.379Z,20.90
2018-03-15T20:20:52.952Z,21.97
2018-03-15T20:23:26.495Z,21.70
2018-03-15T20:25:54.309Z,21.97
2018-03-15T20:28:27.542Z,21.20
2018-03-15T20:30:55.413Z,22.00
2018-03-15T20:33:28.805Z,22.47
2018-03-15T20:35:56.672Z,22.83
2018-03-15T20:38:24.392Z,23.40
2018-03-15T20:40:57.759Z,21.83
2018-03-15T20:43:25.575Z,22.97
2018-03-15T20:45:59.590Z,21.90
2018-03-15T20:48:33.021Z,21.93
2018-03-15T20:51:01.772Z,22.00
2018-03-15T20:53:29.538Z,20.87
2018-03-15T20:55:58.152Z,22.77
2018-03-15T20:58:25.851Z,22.10
2018-03-15T21:00:53.563Z,21.83
2018-03-15T21:03:22.140Z,22.93
2018-03-15T21:05:50.550Z,23.47
2018-03-15T21:08:18.195Z,22.17
2018-03-15T21:10:45.888Z,22.50
2018-03-15T21:13:13.587Z,22.33
2018-03-15T21:15:41.369Z,22.00
2018-03-15T21:18:09.296Z,23.63
2018-03-15T21:20:37.059Z,23.40
2018-03-15T21:23:04.889Z,22.90
2018-03-15T21:25:32.596Z,23.50
2018-03-15T21:28:00.393Z,21.63
2018-03-15T21:30:28.389Z,23.50
2018-03-15T21:32:56.089Z,22.83
2018-03-15T21:35:23.803Z,24.40
2018-03-15T21:37:51.440Z,23.67
2018-03-15T21:40:19.266Z,23.87
2018-03-15T21:42:47.014Z,27.97
2018-03-15T21:45:14.641Z,23.93
2018-03-15T21:47:42.349Z,23.83
2018-03-15T21:50:10.216Z,23.47
2018-03-15T21:52:38.017Z,24.10
2018-03-15T21:55:06.648Z,22.93
2018-03-15T21:57:34.591Z,23.60
2018-03-15T22:00:02.489Z,24.27
2018-03-15T22:02:30.202Z,25.53
2018-03-15T22:04:58.699Z,23.60
2018-03-15T22:07:26.444Z,25.33
2018-03-15T22:09:54.913Z,24.03
2018-03-15T22:12:22.685Z,23.83
2018-03-15T22:14:50.426Z,24.60
2018-03-15T22:17:18.029Z,24.83
2018-03-15T22:19:45.784Z,29.30
2018-03-15T22:22:13.687Z,25.57
2018-03-15T22:24:41.458Z,24.73
2018-03-15T22:27:09.365Z,25.33
2018-03-15T22:29:37.096Z,25.10
2018-03-15T22:32:05.261Z,25.13
2018-03-15T22:34:33.527Z,24.47
2018-03-15T22:37:01.607Z,25.33
2018-03-15T22:39:29.551Z,26.33
2018-03-15T22:41:57.231Z,24.83
2018-03-15T22:44:24.875Z,25.17
2018-03-15T22:46:52.593Z,23.87
2018-03-15T22:49:20.514Z,24.93
2018-03-15T22:51:48.146Z,26.40
2018-03-15T22:54:15.910Z,26.57
2018-03-15T22:56:43.648Z,26.83
2018-03-15T22:59:11.306Z,25.17
2018-03-15T23:01:38.908Z,25.30
2018-03-15T23:04:06.820Z,25.17
2018-03-15T23:06:34.596Z,24.50
2018-03-15T23:09:02.499Z,24.60
2018-03-15T23:11:30.228Z,26.17
2018-03-15T23:13:58.655Z,24.73
2018-03-15T23:16:26.737Z,25.07
2018-03-15T23:18:54.454Z,24.60
2018-03-15T23:21:22.930Z,26.70
2018-03-15T23:23:51.593Z,25.43
2018-03-15T23:26:19.726Z,26.53
2018-03-15T23:28:48.211Z,25.80
2018-03-15T23:31:16.227Z,25.60
2018-03-15T23:33:43.965Z,26.43
2018-03-15T23:36:11.870Z,26.17
2018-03-15T23:38:40.451Z,26.50
2018-03-15T23:41:08.941Z,26.40
2018-03-15T23:43:37.319Z,26.17
2018-03-15T23:46:05.705Z,26.87
2018-03-15T23:48:33.400Z,26.67
2018-03-15T23:51:01.605Z,26.40
2018-03-15T23:53:29.375Z,26.47
2018-03-15T23:55:57.022Z,27.20
2018-03-15T23:58:25.480Z,26.57
